createdAt,value
2019-04-14T00:01:07.033Z,83.58
2019-04-14T00:03:41.177Z,83.79
2019-04-14T00:06:11.281Z,84.08
2019-04-14T00:08:41.583Z,84.66
2019-04-14T00:11:10.978Z,84.03
2019-04-14T00:13:41.283Z,84.27
2019-04-14T00:16:11.746Z,84.63
2019-04-14T00:18:42.314Z,85.20
2019-04-14T00:21:12.944Z,84.70
2019-04-14T00:23:43.482Z,84.52
2019-04-14T00:26:31.527Z,85.39
2019-04-14T00:29:02.496Z,84.95
2019-04-14T00:31:32.875Z,84.54
2019-04-14T00:34:05.146Z,84.45
2019-04-14T00:36:52.577Z,83.45
2019-04-14T00:39:27.292Z,84.34
2019-04-14T00:42:14.885Z,84.37
2019-04-14T00:44:45.899Z,84.56
2019-04-14T00:49:57.448Z,84.01
2019-04-14T00:52:27.609Z,83.67
2019-04-14T00:54:57.197Z,83.60
2019-04-14T00:57:26.874Z,82.99
2019-04-14T00:59:57.316Z,82.88
2019-04-14T01:02:27.549Z,82.94
2019-04-14T01:04:57.705Z,83.17
2019-04-14T01:07:28.274Z,83.53
2019-04-14T01:09:57.822Z,83.05
2019-04-14T01:12:27.813Z,83.57
2019-04-14T01:14:58.221Z,83.56
2019-04-14T01:17:28.646Z,83.21
2019-04-14T01:19:59.179Z,83.43
2019-04-14T01:22:29.265Z,82.88
2019-04-14T01:24:59.930Z,83.14
2019-04-14T01:27:29.910Z,83.56
2019-04-14T01:30:00.340Z,82.81
2019-04-14T01:32:30.482Z,82.55
2019-04-14T01:35:00.991Z,82.86
2019-04-14T01:37:31.156Z,83.00
2019-04-14T01:40:01.019Z,83.52
2019-04-14T01:42:31.053Z,82.86
2019-04-14T01:45:01.410Z,83.21
2019-04-14T01:47:31.358Z,83.68
2019-04-14T01:50:01.798Z,84.31
2019-04-14T01:58:14.395Z,82.70
2019-04-14T02:00:51.367Z,83.33
2019-04-14T02:03:21.721Z,82.77
2019-04-14T02:05:51.733Z,82.18
2019-04-14T02:08:21.992Z,82.14
2019-04-14T02:10:52.043Z,83.09
2019-04-14T02:13:22.528Z,82.68
2019-04-14T02:15:52.848Z,82.64
2019-04-14T02:18:22.942Z,82.18
2019-04-14T02:20:53.615Z,82.34
2019-04-14T02:23:23.636Z,82.25
2019-04-14T02:25:53.616Z,81.83
2019-04-14T02:28:24.212Z,81.61
2019-04-14T02:31:09.062Z,81.11
2019-04-14T02:33:50.400Z,81.83
2019-04-14T02:39:01.822Z,81.34
2019-04-14T02:41:30.018Z,81.33
2019-04-14T02:44:16.107Z,80.64
2019-04-14T02:46:31.814Z,81.14
2019-04-14T02:48:55.383Z,80.84
2019-04-14T02:51:33.708Z,79.68
2019-04-14T03:01:48.257Z,79.36
2019-04-14T03:04:04.161Z,78.74
2019-04-14T03:06:38.019Z,78.58
2019-04-14T03:09:19.486Z,78.64
2019-04-14T03:11:38.109Z,78.68
2019-04-14T03:17:16.199Z,78.59
2019-04-14T03:22:33.000Z,79.72
2019-04-14T03:27:56.570Z,79.82
2019-04-14T03:33:18.060Z,79.71
2019-04-14T03:38:18.307Z,79.20
2019-04-14T03:40:34.334Z,78.43
2019-04-14T03:45:46.774Z,78.93
2019-04-14T03:48:36.516Z,78.91
2019-04-14T03:50:37.393Z,78.97
2019-04-14T03:55:52.137Z,79.08
2019-04-14T03:58:18.259Z,78.94
2019-04-14T04:00:49.160Z,81.08
2019-04-14T04:03:19.627Z,83.85
2019-04-14T04:05:49.958Z,83.93
2019-04-14T04:08:20.143Z,83.64
2019-04-14T04:10:55.318Z,80.96
2019-04-14T04:13:25.956Z,80.88
2019-04-14T04:15:58.306Z,82.41
2019-04-14T04:18:30.979Z,83.50
2019-04-14T04:21:03.107Z,84.03
2019-04-14T04:23:49.626Z,83.02
2019-04-14T04:26:36.576Z,82.24
2019-04-14T04:29:07.693Z,81.20
2019-04-14T04:31:48.300Z,81.63
2019-04-14T04:34:25.405Z,82.50
2019-04-14T04:36:57.481Z,81.85
2019-04-14T04:42:11.288Z,78.07
2019-04-14T04:44:42.030Z,77.33
2019-04-14T04:47:12.342Z,76.46
2019-04-14T04:49:42.624Z,75.37
2019-04-14T04:52:13.959Z,76.38
2019-04-14T04:54:43.232Z,75.75
2019-04-14T04:57:13.388Z,75.48
2019-04-14T04:59:43.066Z,75.05
2019-04-14T05:02:13.456Z,75.73
2019-04-14T05:04:43.834Z,75.90
2019-04-14T05:07:14.387Z,76.21
2019-04-14T05:09:49.105Z,75.87
2019-04-14T05:12:26.326Z,74.92
2019-04-14T05:17:39.429Z,74.91
2019-04-14T05:20:09.545Z,74.71
2019-04-14T05:22:39.788Z,73.45
2019-04-14T05:25:10.094Z,74.66
2019-04-14T05:27:40.823Z,75.24
2019-04-14T05:30:11.196Z,73.87
2019-04-14T05:32:41.285Z,75.15
2019-04-14T05:35:11.929Z,75.13
2019-04-14T05:37:42.113Z,74.41
2019-04-14T05:40:12.397Z,74.09
2019-04-14T05:42:42.729Z,74.21
2019-04-14T05:45:13.259Z,74.91
2019-04-14T05:47:43.636Z,74.99
2019-04-14T05:50:13.703Z,75.68
2019-04-14T05:52:43.120Z,74.98
2019-04-14T05:55:13.469Z,74.43
2019-04-14T05:57:43.794Z,75.27
2019-04-14T06:00:16.653Z,76.12
2019-04-14T06:02:46.350Z,75.40
2019-04-14T06:05:16.604Z,75.92
2019-04-14T06:07:44.854Z,76.69
2019-04-14T06:10:14.285Z,77.08
2019-04-14T06:12:43.699Z,76.80
2019-04-14T06:15:13.324Z,77.49
2019-04-14T06:17:42.681Z,77.98
2019-04-14T06:20:12.353Z,77.64
2019-04-14T06:22:41.791Z,77.61
2019-04-14T06:25:11.614Z,78.27
2019-04-14T06:27:41.067Z,78.69
2019-04-14T06:30:18.112Z,77.83
2019-04-14T06:32:48.463Z,77.73
2019-04-14T06:35:36.016Z,77.50
2019-04-14T06:38:06.999Z,76.61
2019-04-14T06:40:37.996Z,77.95
2019-04-14T06:43:07.426Z,77.81
2019-04-14T06:45:36.845Z,76.90
2019-04-14T06:48:06.275Z,77.56
2019-04-14T06:50:35.710Z,77.08
2019-04-14T06:53:05.078Z,78.19
2019-04-14T06:55:34.504Z,77.90
2019-04-14T06:58:03.929Z,77.76
2019-04-14T07:00:33.333Z,77.15
2019-04-14T07:03:02.769Z,77.38
2019-04-14T07:05:32.182Z,78.18
2019-04-14T07:08:01.604Z,77.21
2019-04-14T07:10:31.019Z,76.80
2019-04-14T07:13:00.453Z,77.47
2019-04-14T07:15:29.810Z,77.22
2019-04-14T07:17:59.165Z,76.87
2019-04-14T07:20:28.525Z,76.91
2019-04-14T07:22:57.916Z,77.00
2019-04-14T07:25:27.336Z,77.28
2019-04-14T07:27:56.773Z,76.90
2019-04-14T07:30:30.505Z,76.46
2019-04-14T07:36:00.200Z,76.34
2019-04-14T07:38:31.192Z,76.92
2019-04-14T07:41:18.597Z,76.05
2019-04-14T07:43:55.892Z,76.02
2019-04-14T07:46:30.019Z,75.35
2019-04-14T07:52:01.329Z,74.70
2019-04-14T07:54:41.107Z,74.59
2019-04-14T07:57:11.138Z,73.98
2019-04-14T07:59:42.140Z,73.76
2019-04-14T08:02:16.068Z,73.42
2019-04-14T08:04:47.092Z,71.57
2019-04-14T08:07:16.627Z,72.07
2019-04-14T08:09:46.001Z,70.81
2019-04-14T08:12:15.428Z,71.58
2019-04-14T08:14:44.812Z,70.25
2019-04-14T08:17:14.152Z,70.29
2019-04-14T08:19:43.566Z,69.60
2019-04-14T08:22:13.013Z,68.98
2019-04-14T08:24:42.508Z,69.98
2019-04-14T08:27:11.929Z,69.28
2019-04-14T08:29:41.289Z,68.62
2019-04-14T08:32:10.645Z,68.03
2019-04-14T08:34:40.040Z,68.41
2019-04-14T08:37:09.395Z,67.37
2019-04-14T08:39:38.795Z,66.66
2019-04-14T08:42:12.679Z,65.09
2019-04-14T08:47:23.201Z,65.33
2019-04-14T08:49:54.716Z,64.22
2019-04-14T08:52:25.959Z,64.64
2019-04-14T08:55:00.400Z,65.35
2019-04-14T08:57:34.794Z,62.63
2019-04-14T09:00:13.598Z,63.61
2019-04-14T09:02:47.805Z,61.52
2019-04-14T09:05:18.822Z,61.46
2019-04-14T09:07:53.033Z,60.80
2019-04-14T09:10:24.149Z,58.46
2019-04-14T09:12:55.145Z,56.23
2019-04-14T09:15:24.575Z,54.63
2019-04-14T09:17:54.002Z,53.47
2019-04-14T09:20:23.437Z,52.69
2019-04-14T09:22:52.919Z,53.38
2019-04-14T09:25:22.375Z,46.36
2019-04-14T09:27:51.814Z,51.70
2019-04-14T09:30:21.262Z,50.12
2019-04-14T09:32:50.658Z,47.91
2019-04-14T09:35:20.140Z,47.47
2019-04-14T09:37:49.589Z,47.81
2019-04-14T09:40:19.070Z,47.99
2019-04-14T09:42:48.407Z,46.18
2019-04-14T09:45:17.840Z,45.27
2019-04-14T09:47:47.308Z,47.05
2019-04-14T09:50:18.192Z,44.35
2019-04-14T09:52:47.822Z,44.35
2019-04-14T09:55:17.423Z,43.20
2019-04-14T09:57:46.775Z,44.61
2019-04-14T10:00:16.920Z,42.76
2019-04-14T10:02:46.421Z,43.35
2019-04-14T10:05:15.887Z,42.26
2019-04-14T10:07:45.339Z,43.27
2019-04-14T10:10:14.773Z,38.09
2019-04-14T10:12:44.198Z,38.05
2019-04-14T10:15:16.616Z,44.53
2019-04-14T10:17:46.179Z,41.77
2019-04-14T10:20:15.649Z,40.13
2019-04-14T10:22:44.975Z,41.15
2019-04-14T10:25:14.465Z,37.75
2019-04-14T10:27:43.916Z,39.63
2019-04-14T10:30:13.333Z,40.97
2019-04-14T10:32:42.683Z,42.52
2019-04-14T10:35:12.130Z,39.82
2019-04-14T10:37:41.538Z,39.82
2019-04-14T10:40:11.095Z,40.86
2019-04-14T10:42:40.564Z,42.20
2019-04-14T10:45:09.905Z,42.24
2019-04-14T10:47:39.472Z,40.65
2019-04-14T10:50:08.963Z,39.95
2019-04-14T10:52:38.448Z,39.56
2019-04-14T10:55:09.172Z,40.66
2019-04-14T11:00:09.477Z,40.73
2019-04-14T11:02:38.946Z,43.15
2019-04-14T11:05:08.457Z,43.15
2019-04-14T11:07:37.954Z,42.70
2019-04-14T11:10:09.251Z,42.70
2019-04-14T11:12:38.773Z,43.60
2019-04-14T11:15:10.681Z,44.41
2019-04-14T11:17:40.240Z,43.39
2019-04-14T11:20:10.461Z,43.50
2019-04-14T11:22:39.933Z,45.67
2019-04-14T11:25:09.384Z,47.66
2019-04-14T11:27:38.842Z,45.54
2019-04-14T11:30:09.951Z,47.31
2019-04-14T11:32:40.916Z,46.48
2019-04-14T11:35:11.919Z,48.05
2019-04-14T11:37:57.881Z,51.12
2019-04-14T11:40:34.884Z,50.99
2019-04-14T11:43:04.227Z,49.49
2019-04-14T11:45:33.661Z,48.66
2019-04-14T11:48:03.214Z,49.48
2019-04-14T11:50:33.679Z,49.16
2019-04-14T11:53:03.039Z,47.39
2019-04-14T11:55:32.595Z,48.47
2019-04-14T11:58:01.972Z,48.47
2019-04-14T12:00:39.094Z,48.08
2019-04-14T12:03:25.404Z,47.17
2019-04-14T12:05:59.345Z,44.42
2019-04-14T12:08:46.572Z,43.01
2019-04-14T12:11:16.059Z,43.92
2019-04-14T12:13:46.857Z,43.69
2019-04-14T12:16:18.321Z,43.69
2019-04-14T12:18:47.374Z,48.81
2019-04-14T12:21:16.752Z,48.29
2019-04-14T12:23:46.154Z,48.29
2019-04-14T12:26:15.690Z,47.09
2019-04-14T12:28:45.148Z,47.56
2019-04-14T12:31:35.341Z,48.57
2019-04-14T12:34:04.705Z,50.88
2019-04-14T12:36:34.081Z,48.43
2019-04-14T12:39:05.034Z,48.43
2019-04-14T12:41:36.021Z,49.22
2019-04-14T12:44:07.064Z,49.22
2019-04-14T12:46:54.593Z,50.23
2019-04-14T12:49:25.579Z,46.92
2019-04-14T12:51:56.585Z,47.62
2019-04-14T12:54:27.203Z,46.63
2019-04-14T12:56:56.602Z,46.21
2019-04-14T12:59:26.348Z,46.21
2019-04-14T13:02:13.480Z,46.21
2019-04-14T13:04:42.989Z,45.68
2019-04-14T13:07:12.420Z,44.37
2019-04-14T13:09:41.860Z,44.37
2019-04-14T13:12:11.299Z,43.24
2019-04-14T13:14:40.804Z,46.04
2019-04-14T13:17:10.242Z,50.61
2019-04-14T13:19:39.705Z,50.61
2019-04-14T13:22:09.071Z,56.82
2019-04-14T13:24:38.511Z,58.61
2019-04-14T13:27:07.984Z,58.61
2019-04-14T13:29:37.341Z,58.72
2019-04-14T13:32:07.186Z,59.19
2019-04-14T13:34:36.654Z,62.95
2019-04-14T13:37:06.031Z,62.15
2019-04-14T13:39:35.444Z,58.05
2019-04-14T13:42:04.794Z,58.05
2019-04-14T13:44:34.291Z,57.87
2019-04-14T13:47:03.729Z,57.87
2019-04-14T13:49:33.068Z,61.80
2019-04-14T13:52:02.412Z,59.57
2019-04-14T13:54:31.831Z,59.57
2019-04-14T13:57:01.184Z,60.73
2019-04-14T13:59:30.542Z,63.49
2019-04-14T14:02:01.700Z,61.00
2019-04-14T14:04:31.064Z,60.57
2019-04-14T14:07:00.513Z,61.90
2019-04-14T14:09:29.928Z,64.37
2019-04-14T14:12:00.951Z,62.70
2019-04-14T14:14:37.713Z,64.01
2019-04-14T14:17:11.402Z,64.13
2019-04-14T14:19:45.148Z,61.94
2019-04-14T14:25:02.406Z,62.82
2019-04-14T14:27:31.745Z,63.05
2019-04-14T14:30:01.109Z,63.95
2019-04-14T14:32:34.998Z,64.58
2019-04-14T14:35:06.214Z,63.98
2019-04-14T14:37:35.542Z,62.84
2019-04-14T14:40:06.710Z,63.62
2019-04-14T14:42:36.071Z,66.09
2019-04-14T14:45:08.893Z,71.13
2019-04-14T14:47:38.345Z,74.52
2019-04-14T14:50:09.434Z,75.97
2019-04-14T14:52:39.761Z,76.73
2019-04-14T14:55:09.308Z,76.94
2019-04-14T14:57:38.688Z,78.25
2019-04-14T15:00:11.110Z,78.50
2019-04-14T15:02:40.521Z,79.67
2019-04-14T15:05:10.047Z,81.46
2019-04-14T15:07:39.504Z,78.47
2019-04-14T15:10:08.941Z,79.91
2019-04-14T15:12:38.362Z,80.26
2019-04-14T15:15:08.086Z,80.84
2019-04-14T15:17:37.523Z,79.36
2019-04-14T15:20:06.886Z,79.03
2019-04-14T15:22:36.505Z,79.46
2019-04-14T15:25:06.333Z,78.48
2019-04-14T15:27:35.679Z,79.66
2019-04-14T15:30:08.878Z,80.54
2019-04-14T15:32:38.303Z,80.38
2019-04-14T15:35:07.737Z,79.69
2019-04-14T15:37:37.080Z,77.33
2019-04-14T15:40:07.612Z,76.78
2019-04-14T15:42:36.967Z,76.72
2019-04-14T15:45:06.974Z,75.47
2019-04-14T15:47:36.319Z,76.52
2019-04-14T15:50:07.360Z,73.41
2019-04-14T15:52:36.705Z,74.21
2019-04-14T15:55:06.547Z,75.65
2019-04-14T15:57:37.515Z,76.55
2019-04-14T16:00:12.770Z,75.73
2019-04-14T16:05:36.582Z,77.19
2019-04-14T16:08:07.562Z,77.59
2019-04-14T16:13:29.738Z,78.13
2019-04-14T16:16:03.624Z,78.84
2019-04-14T16:18:34.651Z,78.73
2019-04-14T16:21:04.495Z,78.45
2019-04-14T16:23:33.864Z,78.63
2019-04-14T16:26:07.541Z,77.56
2019-04-14T16:28:38.579Z,78.84
2019-04-14T16:31:24.949Z,78.66
2019-04-14T16:34:02.129Z,79.53
2019-04-14T16:36:31.582Z,79.34
2019-04-14T16:39:00.940Z,79.88
2019-04-14T16:41:30.399Z,80.13
2019-04-14T16:43:59.829Z,79.72
2019-04-14T16:46:29.307Z,79.59
2019-04-14T16:48:58.660Z,80.18
2019-04-14T16:51:31.826Z,79.65
2019-04-14T16:54:03.494Z,79.87
2019-04-14T16:56:34.673Z,80.40
2019-04-14T16:59:05.717Z,80.17
2019-04-14T17:01:36.728Z,80.67
2019-04-14T17:04:06.161Z,80.11
2019-04-14T17:06:35.594Z,80.14
2019-04-14T17:09:07.326Z,79.87
2019-04-14T17:11:36.676Z,79.86
2019-04-14T17:14:07.711Z,79.56
2019-04-14T17:16:45.874Z,79.28
2019-04-14T17:24:43.205Z,81.23
2019-04-14T17:27:14.239Z,80.85
2019-04-14T17:29:51.304Z,80.57
2019-04-14T17:32:22.319Z,80.91
2019-04-14T17:34:54.127Z,80.45
2019-04-14T17:37:41.569Z,79.77
2019-04-14T17:40:12.711Z,81.01
2019-04-14T17:45:36.594Z,81.14
2019-04-14T17:48:07.625Z,81.19
2019-04-14T17:53:33.530Z,81.76
2019-04-14T18:04:16.378Z,82.57
2019-04-14T18:06:50.344Z,82.48
2019-04-14T18:09:21.372Z,82.86
2019-04-14T18:12:04.363Z,82.13
2019-04-14T18:14:47.234Z,82.52
2019-04-14T18:17:30.524Z,82.68
2019-04-14T18:20:01.586Z,82.54
2019-04-14T18:22:30.952Z,82.30
2019-04-14T18:25:00.424Z,82.39
2019-04-14T18:27:31.428Z,82.41
2019-04-14T18:30:02.487Z,82.28
2019-04-14T18:32:33.565Z,82.50
2019-04-14T18:35:07.724Z,82.01
2019-04-14T18:43:13.943Z,78.73
2019-04-14T18:45:53.974Z,79.76
2019-04-14T18:51:20.921Z,77.47
2019-04-14T18:54:04.148Z,77.69
2019-04-14T18:56:51.403Z,77.11
2019-04-14T18:59:31.226Z,76.70
2019-04-14T19:02:01.658Z,76.59
2019-04-14T19:04:31.133Z,76.84
2019-04-14T19:07:00.676Z,76.06
2019-04-14T19:09:30.105Z,76.42
2019-04-14T19:12:01.124Z,75.70
2019-04-14T19:14:32.122Z,76.80
2019-04-14T19:20:02.026Z,75.74
2019-04-14T19:22:26.918Z,77.19
2019-04-14T19:25:07.282Z,77.32
2019-04-14T19:27:27.458Z,77.57
2019-04-14T19:29:56.826Z,78.71
2019-04-14T19:32:26.263Z,79.30
2019-04-14T19:34:55.713Z,78.29
2019-04-14T19:37:25.166Z,79.69
2019-04-14T19:39:54.503Z,78.95
2019-04-14T19:42:24.977Z,79.57
2019-04-14T19:44:54.343Z,78.74
2019-04-14T19:47:23.728Z,78.77
2019-04-14T19:49:53.181Z,79.04
2019-04-14T19:52:22.555Z,78.11
2019-04-14T19:54:51.989Z,77.52
2019-04-14T19:57:21.425Z,78.20
2019-04-14T19:59:50.780Z,77.12
2019-04-14T20:02:20.117Z,75.80
2019-04-14T20:04:49.485Z,75.36
2019-04-14T20:07:18.917Z,75.37
2019-04-14T20:09:48.350Z,75.38
2019-04-14T20:12:17.785Z,76.74
2019-04-14T20:14:47.235Z,75.20
2019-04-14T20:19:56.947Z,76.24
2019-04-14T20:22:27.935Z,76.37
2019-04-14T20:25:01.824Z,76.35
2019-04-14T20:27:47.920Z,77.46
2019-04-14T20:30:18.961Z,76.37
2019-04-14T20:32:49.877Z,76.76
2019-04-14T20:35:19.405Z,75.71
2019-04-14T20:37:48.753Z,76.56
2019-04-14T20:40:18.349Z,76.32
2019-04-14T20:42:47.720Z,75.84
2019-04-14T20:45:17.635Z,76.40
2019-04-14T20:47:47.088Z,76.31
2019-04-14T20:50:16.639Z,76.89
2019-04-14T20:52:46.167Z,76.69
2019-04-14T20:55:15.528Z,76.79
2019-04-14T20:57:44.878Z,76.87
2019-04-14T21:00:14.413Z,77.24
2019-04-14T21:02:48.510Z,76.39
2019-04-14T21:10:54.036Z,77.43
2019-04-14T21:13:31.040Z,77.04
2019-04-14T21:16:12.207Z,77.16
2019-04-14T21:21:13.663Z,76.83
2019-04-14T21:23:44.662Z,77.43
2019-04-14T21:31:52.662Z,77.22
2019-04-14T21:34:23.689Z,77.39
2019-04-14T21:37:11.145Z,78.33
2019-04-14T21:39:42.155Z,78.76
2019-04-14T21:42:11.574Z,79.14
2019-04-14T21:44:40.923Z,78.56
2019-04-14T21:47:10.341Z,78.80
2019-04-14T21:49:39.690Z,78.51
2019-04-14T21:52:10.674Z,78.26
2019-04-14T21:54:41.678Z,78.68
2019-04-14T21:57:29.215Z,79.12
2019-04-14T22:00:16.788Z,79.26
2019-04-14T22:05:52.703Z,79.44
2019-04-14T22:08:25.206Z,79.44
2019-04-14T22:10:56.414Z,79.90
2019-04-14T22:13:25.837Z,79.83
2019-04-14T22:15:55.329Z,80.08
2019-04-14T22:18:24.632Z,79.86
2019-04-14T22:20:53.984Z,79.76
2019-04-14T22:23:23.429Z,79.84
2019-04-14T22:25:52.805Z,80.04
2019-04-14T22:28:22.494Z,80.58
2019-04-14T22:30:51.906Z,81.40
2019-04-14T22:33:21.331Z,81.58
2019-04-14T22:35:50.684Z,81.53
2019-04-14T22:38:20.029Z,81.02
2019-04-14T22:40:49.382Z,81.61
2019-04-14T22:43:18.726Z,81.40
2019-04-14T22:45:48.147Z,80.91
2019-04-14T22:48:17.508Z,80.71
2019-04-14T22:50:46.866Z,80.75
2019-04-14T22:53:16.213Z,80.29
2019-04-14T22:55:45.564Z,79.79
2019-04-14T22:58:14.981Z,80.01
2019-04-14T23:06:23.713Z,80.23
2019-04-14T23:09:06.714Z,81.19
2019-04-14T23:11:37.717Z,80.33
2019-04-14T23:17:17.453Z,80.08
2019-04-14T23:22:56.443Z,80.71
2019-04-14T23:25:25.867Z,79.86
2019-04-14T23:27:55.287Z,80.56
2019-04-14T23:30:24.631Z,80.67
2019-04-14T23:32:53.981Z,80.00
2019-04-14T23:35:23.339Z,80.00
2019-04-14T23:37:52.676Z,80.57
2019-04-14T23:40:22.092Z,80.03
2019-04-14T23:42:51.509Z,80.34
2019-04-14T23:45:20.922Z,80.30
2019-04-14T23:47:50.261Z,80.23
2019-04-14T23:50:19.684Z,79.81
2019-04-14T23:52:49.112Z,80.02
2019-04-14T23:55:18.515Z,79.98
2019-04-14T23:57:47.936Z,80.04
